Queen Of Cowichan — CZ4990 — position and weather

sailwx.info

Track history (hours):
 
Tides and Currents Weather Stations Pressure Air Temp Water Temp Dewpoint Dewpoint Depression Visibility Wind Speed Wind Dir Waves Ship Positions

Queen Of Cowichan

Last reported at 2014-Aug-20 04:24 UTC. Time now 2014-Aug-20 04:52 UTC.
Position N 49°12' W 123°57'.

Length 139 m; draft 5.5 m.

Type: Passenger vessel. MMSI: 316001251.

Date/timePositionNaut miles runAvg speedWind from/ knotsBaromVisibWave heightAir tempDewpointWater temp
2014-Aug-20 04:24N 49°12' W 123°57'0 0.0
2014-Aug-20 03:12N 49°12' W 123°57'0 0.0
2014-Aug-20 02:12N 49°12' W 123°57'0 0.1
2014-Aug-19 23:14N 49°12' W 123°57'1319.6
2014-Aug-19 22:34N 49°17' W 123°38'1514.9
2014-Aug-19 21:32N 49°23' W 123°16'7 6.9
2014-Aug-19 20:33N 49°18' W 123°24'2020.0
2014-Aug-19 19:33N 49°13' W 123°54'3 0.6
2014-Aug-19 15:33N 49°12' W 123°57'6 0.5
2014-Aug-19 03:34N 49°15' W 123°49'1818.4
2014-Aug-19 02:34N 49°19' W 123°22'5 4.8
2014-Aug-19 01:33N 49°23' W 123°17'1919.0
2014-Aug-19 00:33N 49°15' W 123°43'10 8.2
2014-Aug-18 23:22N 49°12' W 123°57'1417.7
2014-Aug-18 22:34N 49°17' W 123°37'1514.1
2014-Aug-18 21:32N 49°23' W 123°16'7 7.0
2014-Aug-18 20:34N 49°18' W 123°24'2019.8
2014-Aug-18 19:34N 49°13' W 123°54'1 0.5
2014-Aug-18 18:33N 49°13' W 123°55'2020.0
2014-Aug-18 17:33N 49°19' W 123°25'7 6.9
2014-Aug-18 16:33N 49°23' W 123°16'1414.5
2014-Aug-18 15:33N 49°16' W 123°36'1513.4
2014-Aug-18 14:27N 49°12' W 123°57'0 0.0
2014-Aug-18 11:29N 49°12' W 123°57'5 1.4
2014-Aug-18 07:34N 49°14' W 123°50'2020.2
2014-Aug-18 06:34N 49°20' W 123°20'1 1.2
2014-Aug-18 05:34N 49°19' W 123°22'2020.2
2014-Aug-18 04:34N 49°14' W 123°51'3 3.3
2014-Aug-18 03:34N 49°12' W 123°56'2020.0
2014-Aug-18 02:33N 49°18' W 123°27'8 7.8
2014-Aug-18 01:33N 49°23' W 123°16'1414.4
2014-Aug-18 00:33N 49°16' W 123°36'15 1.6
2014-Aug-17 15:25N 49°12' W 123°57'0 0.0
2014-Aug-17 14:13N 49°12' W 123°57'0 0.0
2014-Aug-17 13:25N 49°12' W 123°57'0 0.0
2014-Aug-17 12:31N 49°12' W 123°57'0 0.0
2014-Aug-17 11:25N 49°12' W 123°57'0 0.0
2014-Aug-17 09:28N 49°12' W 123°57'0 0.0
2014-Aug-17 08:19N 49°12' W 123°57'0 0.0
2014-Aug-17 07:16N 49°12' W 123°57'0 0.0
2014-Aug-16 23:13N 49°12' W 123°57'1117.3
2014-Aug-16 22:34N 49°16' W 123°41'1715.4
2014-Aug-16 21:26N 49°23' W 123°16'7 7.6
2014-Aug-16 20:33N 49°18' W 123°24'2019.9
2014-Aug-16 19:33N 49°13' W 123°54'1 0.6
2014-Aug-16 18:34N 49°13' W 123°55'2019.7
2014-Aug-16 17:34N 49°19' W 123°26'7 7.2
2014-Aug-16 16:33N 49°23' W 123°16'1514.6
2014-Aug-16 15:34N 49°16' W 123°36'1411.2
2014-Aug-16 14:16N 49°12' W 123°57'0 0.0
2014-Aug-16 13:27N 49°12' W 123°57'0 0.0
2014-Aug-16 09:21N 49°12' W 123°57'0 0.0
2014-Aug-16 08:27N 49°12' W 123°57'0 0.0
2014-Aug-16 07:27N 49°12' W 123°57'7 1.8
2014-Aug-16 03:33N 49°15' W 123°48'2019.6
2014-Aug-16 02:34N 49°21' W 123°19'2 1.9
2014-Aug-16 01:33N 49°23' W 123°18'1919.0
2014-Aug-16 00:33N 49°15' W 123°44'9 8.3
2014-Aug-15 23:28N 49°12' W 123°57'1212.7
2014-Aug-15 22:33N 49°16' W 123°41'1716.1
2014-Aug-15 21:29N 49°23' W 123°16'6 6.9
2014-Aug-15 20:33N 49°19' W 123°24'2020.2
2014-Aug-15 19:33N 49°13' W 123°54'1 0.7
2014-Aug-15 18:33N 49°13' W 123°55'2019.8
2014-Aug-15 17:33N 49°19' W 123°26'7 7.3
2014-Aug-15 16:33N 49°23' W 123°16'1414.6
2014-Aug-15 15:34N 49°16' W 123°36'1511.7
2014-Aug-15 14:19N 49°12' W 123°57'0 0.0
2014-Aug-15 13:29N 49°12' W 123°57'0 0.0
2014-Aug-15 12:29N 49°12' W 123°57'0 0.0
2014-Aug-15 11:32N 49°12' W 123°57'0 0.0
2014-Aug-15 10:29N 49°12' W 123°57'0 0.0
2014-Aug-15 09:32N 49°12' W 123°57'0 0.0
2014-Aug-15 08:32N 49°12' W 123°57'0 0.0
2014-Aug-15 07:29N 49°12' W 123°57'0 0.0
2014-Aug-15 06:17N 49°12' W 123°57'2 0.8
2014-Aug-15 03:33N 49°13' W 123°55'2019.8
2014-Aug-15 02:33N 49°18' W 123°26'7 7.2
2014-Aug-15 01:32N 49°23' W 123°16'1717.3
2014-Aug-15 00:34N 49°16' W 123°40'12 9.3
2014-Aug-14 23:15N 49°12' W 123°57'1217.6
2014-Aug-14 22:33N 49°17' W 123°40'1713.0
2014-Aug-14 21:16N 49°23' W 123°16'6 8.1
2014-Aug-14 20:34N 49°19' W 123°23'2019.8
2014-Aug-14 19:34N 49°13' W 123°52'2 1.6
2014-Aug-14 18:33N 49°13' W 123°54'2019.6
2014-Aug-14 17:34N 49°19' W 123°26'7 7.2
2014-Aug-14 16:33N 49°23' W 123°16'1414.5
2014-Aug-14 15:33N 49°16' W 123°36'1512.4
2014-Aug-14 14:23N 49°12' W 123°57'0 0.0
2014-Aug-14 13:31N 49°12' W 123°57'0 0.0
2014-Aug-14 12:31N 49°12' W 123°57'0 0.0
2014-Aug-14 11:31N 49°12' W 123°57'0 0.0
2014-Aug-14 10:13N 49°12' W 123°57'0 0.0
2014-Aug-14 09:19N 49°12' W 123°57'0 0.0
2014-Aug-14 08:13N 49°12' W 123°57'0 0.0
2014-Aug-14 07:31N 49°12' W 123°57'0 0.0
2014-Aug-14 06:31N 49°12' W 123°57'1 0.3
2014-Aug-14 03:34N 49°12' W 123°57'2019.8
2014-Aug-14 02:34N 49°18' W 123°28'9 8.5
2014-Aug-14 01:32N 49°23' W 123°16'1717.8
2014-Aug-14 00:33N 49°16' W 123°40'1211.3
2014-Aug-13 23:31N 49°12' W 123°57'1314.0
2014-Aug-13 22:34N 49°17' W 123°39'1515.3
2014-Aug-13 21:33N 49°23' W 123°16'6 5.9
2014-Aug-13 20:34N 49°19' W 123°23'2019.8
2014-Aug-13 19:33N 49°14' W 123°53'4 3.1
2014-Aug-13 18:24N 49°12' W 123°57'0 0.0
2014-Aug-13 15:10N 49°12' W 123°57'0 0.0
2014-Aug-13 13:13N 49°12' W 123°57'0 0.0
2014-Aug-13 11:31N 49°12' W 123°57'0 0.0
2014-Aug-13 10:07N 49°12' W 123°57'0 0.0
2014-Aug-13 08:31N 49°12' W 123°57'0 0.0
2014-Aug-13 05:16N 49°12' W 123°57'0 0.0
2014-Aug-12 23:14N 49°12' W 123°57'1217.8
2014-Aug-12 22:34N 49°16' W 123°40'1714.0
2014-Aug-12 21:21N 49°23' W 123°16'5 6.6
2014-Aug-12 20:34N 49°19' W 123°22'2019.6
2014-Aug-12 19:33N 49°14' W 123°51'4 4.4
2014-Aug-12 18:33N 49°12' W 123°57'0 0.0
2014-Aug-12 16:15N 49°12' W 123°57'0 0.0
2014-Aug-12 15:30N 49°12' W 123°57'0 0.0
2014-Aug-12 11:33N 49°12' W 123°57'0 0.0
2014-Aug-12 10:27N 49°12' W 123°57'0 0.0
2014-Aug-12 09:33N 49°12' W 123°57'0 0.0
2014-Aug-12 08:27N 49°12' W 123°57'0 0.0
2014-Aug-12 07:33N 49°12' W 123°57'0 0.0
2014-Aug-12 06:33N 49°12' W 123°57'0 0.0
2014-Aug-12 05:21N 49°12' W 123°57'0 0.0
2014-Aug-12 04:21N 49°12' W 123°57'6 7.6
2014-Aug-12 03:33N 49°15' W 123°49'2019.5
2014-Aug-12 02:33N 49°20' W 123°21'3 3.5
2014-Aug-12 01:34N 49°23' W 123°17'1918.9
2014-Aug-12 00:34N 49°16' W 123°44'9 8.5
2014-Aug-11 23:26N 49°12' W 123°57'1516.8
2014-Aug-11 22:34N 49°17' W 123°36'9 4.6
2014-Aug-11 20:33N 49°19' W 123°22'2019.9
2014-Aug-11 19:33N 49°14' W 123°52'3 2.5
2014-Aug-11 18:34N 49°13' W 123°55'2019.8
2014-Aug-11 17:34N 49°19' W 123°26'8 6.7
2014-Aug-11 16:24N 49°23' W 123°16'1416.8
2014-Aug-11 15:33N 49°16' W 123°35'15 3.5
2014-Aug-11 11:15N 49°12' W 123°57'7 1.8
2014-Aug-11 07:34N 49°15' W 123°48'2019.6
2014-Aug-11 06:33N 49°21' W 123°20'3 3.1
2014-Aug-11 05:34N 49°19' W 123°23'2019.8
2014-Aug-11 04:33N 49°13' W 123°53'2 1.6
2014-Aug-11 03:33N 49°13' W 123°55'2019.8
2014-Aug-11 02:34N 49°19' W 123°26'8 7.4
2014-Aug-11 01:33N 49°23' W 123°16'1717.7
2014-Aug-11 00:33N 49°16' W 123°41'1210.4
2014-Aug-10 23:27N 49°12' W 123°57'1314.7
2014-Aug-10 22:33N 49°17' W 123°39'10 5.2
2014-Aug-10 20:33N 49°19' W 123°23'2019.7
2014-Aug-10 19:33N 49°14' W 123°52'4 0.9
2014-Aug-10 15:15N 49°12' W 123°57'0 0.0
2014-Aug-10 13:24N 49°12' W 123°57'0 0.0
2014-Aug-10 12:15N 49°12' W 123°57'0 0.0
2014-Aug-10 11:27N 49°12' W 123°57'0 0.0
2014-Aug-10 06:27N 49°12' W 123°57'  
Track history (hours):
 
Tides and Currents Weather Stations Pressure Air Temp Water Temp Dewpoint Dewpoint Depression Visibility Wind Speed Wind Dir Waves Ship Positions

Queen Of Cowichan

Last reported at 2014-Aug-20 04:24 UTC. Time now 2014-Aug-20 04:52 UTC.
Position N 49°12' W 123°57'.

Length 139 m; draft 5.5 m.

Type: Passenger vessel. MMSI: 316001251.

Date/timePositionNaut miles runAvg speedWind from/ knotsBaromVisibWave heightAir tempDewpointWater temp
2014-Aug-20 04:24N 49°12' W 123°57'0 0.0
2014-Aug-20 03:12N 49°12' W 123°57'0 0.0
2014-Aug-20 02:12N 49°12' W 123°57'0 0.1
2014-Aug-19 23:14N 49°12' W 123°57'1319.6
2014-Aug-19 22:34N 49°17' W 123°38'1514.9
2014-Aug-19 21:32N 49°23' W 123°16'7 6.9
2014-Aug-19 20:33N 49°18' W 123°24'2020.0
2014-Aug-19 19:33N 49°13' W 123°54'3 0.6
2014-Aug-19 15:33N 49°12' W 123°57'6 0.5
2014-Aug-19 03:34N 49°15' W 123°49'1818.4
2014-Aug-19 02:34N 49°19' W 123°22'5 4.8
2014-Aug-19 01:33N 49°23' W 123°17'1919.0
2014-Aug-19 00:33N 49°15' W 123°43'10 8.2
2014-Aug-18 23:22N 49°12' W 123°57'1417.7
2014-Aug-18 22:34N 49°17' W 123°37'1514.1
2014-Aug-18 21:32N 49°23' W 123°16'7 7.0
2014-Aug-18 20:34N 49°18' W 123°24'2019.8
2014-Aug-18 19:34N 49°13' W 123°54'1 0.5
2014-Aug-18 18:33N 49°13' W 123°55'2020.0
2014-Aug-18 17:33N 49°19' W 123°25'7 6.9
2014-Aug-18 16:33N 49°23' W 123°16'1414.5
2014-Aug-18 15:33N 49°16' W 123°36'1513.4
2014-Aug-18 14:27N 49°12' W 123°57'0 0.0
2014-Aug-18 11:29N 49°12' W 123°57'5 1.4
2014-Aug-18 07:34N 49°14' W 123°50'2020.2
2014-Aug-18 06:34N 49°20' W 123°20'1 1.2
2014-Aug-18 05:34N 49°19' W 123°22'2020.2
2014-Aug-18 04:34N 49°14' W 123°51'3 3.3
2014-Aug-18 03:34N 49°12' W 123°56'2020.0
2014-Aug-18 02:33N 49°18' W 123°27'8 7.8
2014-Aug-18 01:33N 49°23' W 123°16'1414.4
2014-Aug-18 00:33N 49°16' W 123°36'15 1.6
2014-Aug-17 15:25N 49°12' W 123°57'0 0.0
2014-Aug-17 14:13N 49°12' W 123°57'0 0.0
2014-Aug-17 13:25N 49°12' W 123°57'0 0.0
2014-Aug-17 12:31N 49°12' W 123°57'0 0.0
2014-Aug-17 11:25N 49°12' W 123°57'0 0.0
2014-Aug-17 09:28N 49°12' W 123°57'0 0.0
2014-Aug-17 08:19N 49°12' W 123°57'0 0.0
2014-Aug-17 07:16N 49°12' W 123°57'0 0.0
2014-Aug-16 23:13N 49°12' W 123°57'1117.3
2014-Aug-16 22:34N 49°16' W 123°41'1715.4
2014-Aug-16 21:26N 49°23' W 123°16'7 7.6
2014-Aug-16 20:33N 49°18' W 123°24'2019.9
2014-Aug-16 19:33N 49°13' W 123°54'1 0.6
2014-Aug-16 18:34N 49°13' W 123°55'2019.7
2014-Aug-16 17:34N 49°19' W 123°26'7 7.2
2014-Aug-16 16:33N 49°23' W 123°16'1514.6
2014-Aug-16 15:34N 49°16' W 123°36'1411.2
2014-Aug-16 14:16N 49°12' W 123°57'0 0.0
2014-Aug-16 13:27N 49°12' W 123°57'0 0.0
2014-Aug-16 09:21N 49°12' W 123°57'0 0.0
2014-Aug-16 08:27N 49°12' W 123°57'0 0.0
2014-Aug-16 07:27N 49°12' W 123°57'7 1.8
2014-Aug-16 03:33N 49°15' W 123°48'2019.6
2014-Aug-16 02:34N 49°21' W 123°19'2 1.9
2014-Aug-16 01:33N 49°23' W 123°18'1919.0
2014-Aug-16 00:33N 49°15' W 123°44'9 8.3
2014-Aug-15 23:28N 49°12' W 123°57'1212.7
2014-Aug-15 22:33N 49°16' W 123°41'1716.1
2014-Aug-15 21:29N 49°23' W 123°16'6 6.9
2014-Aug-15 20:33N 49°19' W 123°24'2020.2
2014-Aug-15 19:33N 49°13' W 123°54'1 0.7
2014-Aug-15 18:33N 49°13' W 123°55'2019.8
2014-Aug-15 17:33N 49°19' W 123°26'7 7.3
2014-Aug-15 16:33N 49°23' W 123°16'1414.6
2014-Aug-15 15:34N 49°16' W 123°36'1511.7
2014-Aug-15 14:19N 49°12' W 123°57'0 0.0
2014-Aug-15 13:29N 49°12' W 123°57'0 0.0
2014-Aug-15 12:29N 49°12' W 123°57'0 0.0
2014-Aug-15 11:32N 49°12' W 123°57'0 0.0
2014-Aug-15 10:29N 49°12' W 123°57'0 0.0
2014-Aug-15 09:32N 49°12' W 123°57'0 0.0
2014-Aug-15 08:32N 49°12' W 123°57'0 0.0
2014-Aug-15 07:29N 49°12' W 123°57'0 0.0
2014-Aug-15 06:17N 49°12' W 123°57'2 0.8
2014-Aug-15 03:33N 49°13' W 123°55'2019.8
2014-Aug-15 02:33N 49°18' W 123°26'7 7.2
2014-Aug-15 01:32N 49°23' W 123°16'1717.3
2014-Aug-15 00:34N 49°16' W 123°40'12 9.3
2014-Aug-14 23:15N 49°12' W 123°57'1217.6
2014-Aug-14 22:33N 49°17' W 123°40'1713.0
2014-Aug-14 21:16N 49°23' W 123°16'6 8.1
2014-Aug-14 20:34N 49°19' W 123°23'2019.8
2014-Aug-14 19:34N 49°13' W 123°52'2 1.6
2014-Aug-14 18:33N 49°13' W 123°54'2019.6
2014-Aug-14 17:34N 49°19' W 123°26'7 7.2
2014-Aug-14 16:33N 49°23' W 123°16'1414.5
2014-Aug-14 15:33N 49°16' W 123°36'1512.4
2014-Aug-14 14:23N 49°12' W 123°57'0 0.0
2014-Aug-14 13:31N 49°12' W 123°57'0 0.0
2014-Aug-14 12:31N 49°12' W 123°57'0 0.0
2014-Aug-14 11:31N 49°12' W 123°57'0 0.0
2014-Aug-14 10:13N 49°12' W 123°57'0 0.0
2014-Aug-14 09:19N 49°12' W 123°57'0 0.0
2014-Aug-14 08:13N 49°12' W 123°57'0 0.0
2014-Aug-14 07:31N 49°12' W 123°57'0 0.0
2014-Aug-14 06:31N 49°12' W 123°57'1 0.3
2014-Aug-14 03:34N 49°12' W 123°57'2019.8
2014-Aug-14 02:34N 49°18' W 123°28'9 8.5
2014-Aug-14 01:32N 49°23' W 123°16'1717.8
2014-Aug-14 00:33N 49°16' W 123°40'1211.3
2014-Aug-13 23:31N 49°12' W 123°57'1314.0
2014-Aug-13 22:34N 49°17' W 123°39'1515.3
2014-Aug-13 21:33N 49°23' W 123°16'6 5.9
2014-Aug-13 20:34N 49°19' W 123°23'2019.8
2014-Aug-13 19:33N 49°14' W 123°53'4 3.1
2014-Aug-13 18:24N 49°12' W 123°57'0 0.0
2014-Aug-13 15:10N 49°12' W 123°57'0 0.0
2014-Aug-13 13:13N 49°12' W 123°57'0 0.0
2014-Aug-13 11:31N 49°12' W 123°57'0 0.0
2014-Aug-13 10:07N 49°12' W 123°57'0 0.0
2014-Aug-13 08:31N 49°12' W 123°57'0 0.0
2014-Aug-13 05:16N 49°12' W 123°57'0 0.0
2014-Aug-12 23:14N 49°12' W 123°57'1217.8
2014-Aug-12 22:34N 49°16' W 123°40'1714.0
2014-Aug-12 21:21N 49°23' W 123°16'5 6.6
2014-Aug-12 20:34N 49°19' W 123°22'2019.6
2014-Aug-12 19:33N 49°14' W 123°51'4 4.4
2014-Aug-12 18:33N 49°12' W 123°57'0 0.0
2014-Aug-12 16:15N 49°12' W 123°57'0 0.0
2014-Aug-12 15:30N 49°12' W 123°57'0 0.0
2014-Aug-12 11:33N 49°12' W 123°57'0 0.0
2014-Aug-12 10:27N 49°12' W 123°57'0 0.0
2014-Aug-12 09:33N 49°12' W 123°57'0 0.0
2014-Aug-12 08:27N 49°12' W 123°57'0 0.0
2014-Aug-12 07:33N 49°12' W 123°57'0 0.0
2014-Aug-12 06:33N 49°12' W 123°57'0 0.0
2014-Aug-12 05:21N 49°12' W 123°57'0 0.0
2014-Aug-12 04:21N 49°12' W 123°57'6 7.6
2014-Aug-12 03:33N 49°15' W 123°49'2019.5
2014-Aug-12 02:33N 49°20' W 123°21'3 3.5
2014-Aug-12 01:34N 49°23' W 123°17'1918.9
2014-Aug-12 00:34N 49°16' W 123°44'9 8.5
2014-Aug-11 23:26N 49°12' W 123°57'1516.8
2014-Aug-11 22:34N 49°17' W 123°36'9 4.6
2014-Aug-11 20:33N 49°19' W 123°22'2019.9
2014-Aug-11 19:33N 49°14' W 123°52'3 2.5
2014-Aug-11 18:34N 49°13' W 123°55'2019.8
2014-Aug-11 17:34N 49°19' W 123°26'8 6.7
2014-Aug-11 16:24N 49°23' W 123°16'1416.8
2014-Aug-11 15:33N 49°16' W 123°35'15 3.5
2014-Aug-11 11:15N 49°12' W 123°57'7 1.8
2014-Aug-11 07:34N 49°15' W 123°48'2019.6
2014-Aug-11 06:33N 49°21' W 123°20'3 3.1
2014-Aug-11 05:34N 49°19' W 123°23'2019.8
2014-Aug-11 04:33N 49°13' W 123°53'2 1.6
2014-Aug-11 03:33N 49°13' W 123°55'2019.8
2014-Aug-11 02:34N 49°19' W 123°26'8 7.4
2014-Aug-11 01:33N 49°23' W 123°16'1717.7
2014-Aug-11 00:33N 49°16' W 123°41'1210.4
2014-Aug-10 23:27N 49°12' W 123°57'1314.7
2014-Aug-10 22:33N 49°17' W 123°39'10 5.2
2014-Aug-10 20:33N 49°19' W 123°23'2019.7
2014-Aug-10 19:33N 49°14' W 123°52'4 0.9
2014-Aug-10 15:15N 49°12' W 123°57'0 0.0
2014-Aug-10 13:24N 49°12' W 123°57'0 0.0
2014-Aug-10 12:15N 49°12' W 123°57'0 0.0
2014-Aug-10 11:27N 49°12' W 123°57'0 0.0
2014-Aug-10 06:27N 49°12' W 123°57'  

Dump ship's entire track history